Darstellungsparameter: Aktuell verwendete Einstellungen:
Skalierung der Graphiken ... ?
xyx+y,   Skalierungsfaktor:      Skalierung: Modus: x, Faktor: 1
Darstellungszeitraum ... ?
Vom - - bis: - -   Zeitraum: 27.04.2020 - 29.04.2020
Min/Max/Avg-Anzeige ... ?
Zeige MMA aktuell
Zeige MMA Monat
Zeige MMA alles
Zeige --A aktuell
Zeige --A Monat
Zeige --A alles
Keine MMA-Anzeige
MMA:
Keine MMA-Graphiken
MMA-Basis: 27.04.2020 - 29.04.2020
Quicknavigation für Darstellung... ?
Tage:      1T, 2T, 3T, 5T -1T -2T -3T -5T +1T +2T +3T +5T
Wochen: 1W, 2W, 3W -1W -2W -3W +1W +2W +3W
Monate: 1M, 3M, 6M -1M -3M -6M +1M +3M +6M
Jahre:    1J, 3J, 5J, 10J -1J -3J -5J -10J +1J +3J +5J +10J
Nutze für die Darstellung ... ?
Originaldaten oder Mittelwerte auf ...
Stundenbasis Tagesbasis Wochenbasis
Monatsbasis Jahresbasis      Datenbasis: Original-Daten
Darstellen als:
Statistik (Auto) Statistik J:M      Darstellung:
Zur Graphik,    zurück zur Übersicht aller Sensoren.
 
Tabellarische Datenbersicht: ?
 
Sensor: Nr:Datum:Temp:Feuchte:
Aussen-T/F 1 27-04-2020 00:03:18 8.3 C 30 %
2 27-04-2020 00:13:18 8 C 31 %
3 27-04-2020 00:23:18 7.9 C 32 %
4 27-04-2020 00:33:17 7.6 C 32 %
5 27-04-2020 00:43:17 7.4 C 33 %
6 27-04-2020 00:53:17 7.2 C 33 %
7 27-04-2020 01:03:18 7.1 C 33 %
8 27-04-2020 01:13:18 6.8 C 35 %
9 27-04-2020 01:23:18 6.9 C 35 %
10 27-04-2020 01:33:17 6.9 C 35 %
11 27-04-2020 01:43:17 6.8 C 35 %
12 27-04-2020 01:53:17 6.4 C 35 %
13 27-04-2020 02:03:17 6.2 C 36 %
14 27-04-2020 02:13:17 6 C 36 %
15 27-04-2020 02:23:17 5.9 C 37 %
16 27-04-2020 02:33:17 5.7 C 37 %
17 27-04-2020 02:43:17 6 C 37 %
18 27-04-2020 02:53:17 6 C 37 %
19 27-04-2020 03:03:18 5.7 C 38 %
20 27-04-2020 03:13:18 5.6 C 38 %
21 27-04-2020 03:23:18 5.6 C 38 %
22 27-04-2020 03:33:17 5.6 C 38 %
23 27-04-2020 03:43:17 5.6 C 39 %
24 27-04-2020 03:53:17 5.7 C 39 %
25 27-04-2020 04:03:18 5 C 38 %
Sensor: Nr:Datum:Temp:Feuchte:
Aussen-T/F 26 27-04-2020 04:13:18 4.8 C 40 %
27 27-04-2020 04:23:17 4.4 C 40 %
28 27-04-2020 04:33:18 4.3 C 41 %
29 27-04-2020 04:43:18 4 C 41 %
30 27-04-2020 04:53:17 4.1 C 42 %
31 27-04-2020 05:03:17 4 C 42 %
32 27-04-2020 05:13:17 4.2 C 42 %
33 27-04-2020 05:23:17 3.7 C 43 %
34 27-04-2020 05:33:17 3.7 C 43 %
35 27-04-2020 05:43:17 3.4 C 43 %
36 27-04-2020 05:53:17 3.7 C 44 %
37 27-04-2020 06:03:18 3.5 C 44 %
38 27-04-2020 06:13:18 3.4 C 44 %
39 27-04-2020 06:23:17 3.6 C 45 %
40 27-04-2020 06:33:17 3.8 C 45 %
41 27-04-2020 06:43:17 3.8 C 44 %
42 27-04-2020 06:53:17 3.8 C 44 %
43 27-04-2020 07:03:17 3.8 C 44 %
44 27-04-2020 07:13:17 3.9 C 45 %
45 27-04-2020 07:23:17 3.9 C 45 %
46 27-04-2020 07:33:17 4.2 C 44 %
47 27-04-2020 07:43:17 4.5 C 43 %
48 27-04-2020 07:53:17 4.6 C 43 %
49 27-04-2020 08:03:17 4.9 C 42 %
50 27-04-2020 08:13:17 4.8 C 42 %
Sensor: Nr:Datum:Temp:Feuchte:
Aussen-T/F 51 27-04-2020 08:23:17 5.1 C 42 %
52 27-04-2020 08:33:17 5.5 C 41 %
53 27-04-2020 08:43:17 5.7 C 41 %
54 27-04-2020 08:53:17 6 C 41 %
55 27-04-2020 09:03:18 6.4 C 40 %
56 27-04-2020 09:13:18 6.6 C 40 %
57 27-04-2020 09:23:17 7 C 40 %
58 27-04-2020 09:33:17 7.6 C 39 %
59 27-04-2020 09:43:17 8.3 C 37 %
60 27-04-2020 09:53:17 8.5 C 38 %
61 27-04-2020 10:03:17 9.1 C 37 %
62 27-04-2020 10:13:17 9.9 C 37 %
63 27-04-2020 10:23:17 10.7 C 35 %
64 27-04-2020 10:33:17 11.7 C 34 %
65 27-04-2020 10:43:17 12.3 C 32 %
66 27-04-2020 10:53:17 13.5 C 30 %
67 27-04-2020 11:03:17 15.5 C 25 %
68 27-04-2020 11:13:17 16.6 C 22 %
69 27-04-2020 11:23:17 16.8 C 20 %
70 27-04-2020 11:33:17 17.2 C 20 %
71 27-04-2020 11:43:17 17.5 C 20 %
72 27-04-2020 11:53:17 17.7 C 20 %
73 27-04-2020 12:03:17 18.1 C 20 %
74 27-04-2020 12:13:17 18.4 C 20 %
75 27-04-2020 12:23:17 18.3 C 20 %
Sensor: Nr:Datum:Temp:Feuchte:
Aussen-T/F 76 27-04-2020 12:33:17 18.7 C 20 %
77 27-04-2020 12:43:17 19 C 20 %
78 27-04-2020 12:53:18 19.1 C 20 %
79 27-04-2020 13:03:17 19.7 C 20 %
80 27-04-2020 13:13:17 19.5 C 20 %
81 27-04-2020 13:23:17 19.6 C 20 %
82 27-04-2020 13:33:17 20.1 C 20 %
83 27-04-2020 13:43:17 20.2 C 20 %
84 27-04-2020 13:53:17 20.4 C 20 %
85 27-04-2020 14:03:18 21 C 20 %
86 27-04-2020 14:13:18 21.4 C 20 %
87 27-04-2020 14:23:17 25.1 C 20 %
88 27-04-2020 14:33:18 25.5 C 20 %
89 27-04-2020 14:43:18 28.2 C 20 %
90 27-04-2020 14:53:17 28.9 C 20 %
91 27-04-2020 15:03:17 30.1 C 20 %
92 27-04-2020 15:13:17 27.6 C 20 %
93 27-04-2020 15:23:17 26.7 C 20 %
94 27-04-2020 15:33:17 27.5 C 20 %
95 27-04-2020 15:43:17 27.6 C 20 %
96 27-04-2020 15:53:17 27.9 C 20 %
97 27-04-2020 16:03:17 26.8 C 20 %
98 27-04-2020 16:13:17 23.7 C 20 %
99 27-04-2020 16:23:17 23.4 C 20 %
100 27-04-2020 16:33:17 24.1 C 20 %
Sensor: Nr:Datum:Temp:Feuchte:
Aussen-T/F 101 27-04-2020 16:43:17 23.7 C 20 %
102 27-04-2020 16:53:17 22.7 C 20 %
103 27-04-2020 17:03:18 22.1 C 20 %
104 27-04-2020 17:13:18 22.1 C 20 %
105 27-04-2020 17:23:17 21.6 C 20 %
106 27-04-2020 17:33:17 21.7 C 20 %
107 27-04-2020 17:43:17 21.6 C 20 %
108 27-04-2020 17:53:17 22.2 C 20 %
109 27-04-2020 18:03:17 21.5 C 20 %
110 27-04-2020 18:13:17 21.8 C 20 %
111 27-04-2020 18:23:17 24 C 20 %
112 27-04-2020 18:33:18 23.1 C 20 %
113 27-04-2020 18:43:18 22.4 C 20 %
114 27-04-2020 18:53:17 22.1 C 20 %
115 27-04-2020 19:03:17 20.9 C 20 %
116 27-04-2020 19:13:17 19.4 C 20 %
117 27-04-2020 19:23:18 19.2 C 20 %
118 27-04-2020 19:33:17 18.3 C 20 %
119 27-04-2020 19:43:18 18.2 C 20 %
120 27-04-2020 19:53:17 17.4 C 20 %
121 27-04-2020 20:03:17 17.1 C 20 %
122 27-04-2020 20:13:17 16.8 C 20 %
123 27-04-2020 20:23:17 16.2 C 20 %
124 27-04-2020 20:33:17 15.4 C 21 %
125 27-04-2020 20:43:17 15.1 C 21 %
Sensor: Nr:Datum:Temp:Feuchte:
Aussen-T/F 126 27-04-2020 20:53:18 15.2 C 21 %
127 27-04-2020 21:03:17 15 C 21 %
128 27-04-2020 21:13:17 15 C 22 %
129 27-04-2020 21:23:17 14.6 C 25 %
130 27-04-2020 21:33:18 14.2 C 25 %
131 27-04-2020 21:43:18 13.6 C 26 %
132 27-04-2020 21:53:17 13.2 C 27 %
133 27-04-2020 22:03:18 13.3 C 27 %
134 27-04-2020 22:13:18 13.3 C 27 %
135 27-04-2020 22:23:17 13 C 28 %
136 27-04-2020 22:33:17 12.3 C 30 %
137 27-04-2020 22:43:17 12.1 C 30 %
138 27-04-2020 22:53:18 12 C 30 %
139 27-04-2020 23:03:17 12 C 30 %
140 27-04-2020 23:13:17 12 C 30 %
141 27-04-2020 23:23:17 11.8 C 31 %
142 27-04-2020 23:33:17 11.4 C 32 %
143 27-04-2020 23:43:17 11 C 32 %
144 27-04-2020 23:53:18 10.6 C 34 %
145 28-04-2020 00:03:17 10.5 C 35 %
146 28-04-2020 00:13:17 10 C 35 %
147 28-04-2020 00:23:17 10 C 35 %
148 28-04-2020 00:33:18 9.8 C 36 %
149 28-04-2020 00:43:18 9.8 C 36 %
150 28-04-2020 00:53:17 9.7 C 36 %
Sensor: Nr:Datum:Temp:Feuchte:
Aussen-T/F 151 28-04-2020 01:03:18 9.5 C 36 %
152 28-04-2020 01:13:18 9.3 C 37 %
153 28-04-2020 01:23:17 9.1 C 37 %
154 28-04-2020 01:33:17 9.1 C 37 %
155 28-04-2020 01:43:18 9.2 C 37 %
156 28-04-2020 01:53:17 8.8 C 38 %
157 28-04-2020 02:03:18 8.7 C 39 %
158 28-04-2020 02:13:18 8.8 C 39 %
159 28-04-2020 02:23:17 8.4 C 39 %
160 28-04-2020 02:33:18 8.2 C 39 %
161 28-04-2020 02:43:18 8.3 C 40 %
162 28-04-2020 02:53:18 8.6 C 40 %
163 28-04-2020 03:03:17 8.7 C 40 %
164 28-04-2020 03:13:17 8.4 C 40 %
165 28-04-2020 03:23:17 8.3 C 40 %
166 28-04-2020 03:33:18 8.3 C 40 %
167 28-04-2020 03:43:18 7.8 C 40 %
168 28-04-2020 03:53:18 7.7 C 41 %
169 28-04-2020 04:03:18 7.9 C 41 %
170 28-04-2020 04:13:18 7.4 C 41 %
171 28-04-2020 04:23:18 7.3 C 41 %
172 28-04-2020 04:33:18 7.3 C 42 %
173 28-04-2020 04:43:18 7.6 C 43 %
174 28-04-2020 04:53:17 7.7 C 42 %
175 28-04-2020 05:03:17 7.8 C 41 %
Sensor: Nr:Datum:Temp:Feuchte:
Aussen-T/F 176 28-04-2020 05:13:17 7.8 C 42 %
177 28-04-2020 05:23:17 7.8 C 41 %
178 28-04-2020 05:33:18 7.9 C 41 %
179 28-04-2020 05:43:18 7.7 C 41 %
180 28-04-2020 05:53:17 7.5 C 41 %
181 28-04-2020 06:03:17 7.2 C 41 %
182 28-04-2020 06:13:17 7 C 42 %
183 28-04-2020 06:23:17 7.3 C 43 %
184 28-04-2020 06:33:18 7.6 C 43 %
185 28-04-2020 06:43:18 8 C 42 %
186 28-04-2020 06:53:17 8.3 C 41 %
187 28-04-2020 07:03:18 8.7 C 41 %
188 28-04-2020 07:13:18 9.1 C 40 %
189 28-04-2020 07:23:18 9.3 C 39 %
190 28-04-2020 07:33:17 9.5 C 39 %
191 28-04-2020 07:43:17 9.6 C 39 %
192 28-04-2020 07:53:17 9.4 C 39 %
193 28-04-2020 08:03:17 9.2 C 40 %
194 28-04-2020 08:13:17 9.5 C 41 %
195 28-04-2020 08:23:17 9.8 C 41 %
196 28-04-2020 08:33:17 10 C 41 %
197 28-04-2020 08:43:17 10.1 C 41 %
198 28-04-2020 08:53:17 10.6 C 40 %
199 28-04-2020 09:03:17 10.7 C 40 %
200 28-04-2020 09:13:17 11.2 C 39 %
Sensor: Nr:Datum:Temp:Feuchte:
Aussen-T/F 201 28-04-2020 09:23:17 11.7 C 39 %
202 28-04-2020 09:33:18 11.8 C 39 %
203 28-04-2020 09:43:18 11.8 C 38 %
204 28-04-2020 09:53:17 12.2 C 38 %
205 28-04-2020 10:03:17 12.8 C 38 %
206 28-04-2020 10:13:17 12.9 C 37 %
207 28-04-2020 10:23:18 13.3 C 36 %
208 28-04-2020 10:33:17 13.7 C 36 %
209 28-04-2020 10:43:17 14 C 35 %
210 28-04-2020 10:53:17 14.1 C 35 %
211 28-04-2020 11:03:17 13.4 C 37 %
212 28-04-2020 11:13:17 13.8 C 38 %
213 28-04-2020 11:23:17 13.5 C 38 %
214 28-04-2020 11:33:17 14.2 C 38 %
215 28-04-2020 11:43:17 14.3 C 37 %
216 28-04-2020 11:53:17 14.6 C 38 %
217 28-04-2020 12:03:17 14.9 C 37 %
218 28-04-2020 12:13:17 15 C 37 %
219 28-04-2020 12:23:17 14.9 C 38 %
220 28-04-2020 12:33:17 15.2 C 37 %
221 28-04-2020 12:43:17 15 C 38 %
222 28-04-2020 12:53:17 14.9 C 39 %
223 28-04-2020 13:03:18 14.7 C 39 %
224 28-04-2020 13:13:18 14.5 C 41 %
225 28-04-2020 13:23:17 14.2 C 41 %
Sensor: Nr:Datum:Temp:Feuchte:
Aussen-T/F 226 28-04-2020 13:33:17 14.9 C 40 %
227 28-04-2020 13:43:17 14.9 C 38 %
228 28-04-2020 13:53:17 15.2 C 36 %
229 28-04-2020 14:03:17 16.2 C 36 %
230 28-04-2020 14:13:17 16.9 C 35 %
231 28-04-2020 14:23:18 20.2 C 30 %
232 28-04-2020 14:33:18 17.5 C 32 %
233 28-04-2020 14:43:18 16.5 C 34 %
234 28-04-2020 14:53:17 17.2 C 33 %
235 28-04-2020 15:03:17 16.4 C 34 %
236 28-04-2020 15:13:17 15.6 C 36 %
237 28-04-2020 15:23:17 15.6 C 36 %
238 28-04-2020 15:33:17 18.1 C 32 %
239 28-04-2020 15:43:17 16.5 C 33 %
240 28-04-2020 15:53:17 17 C 32 %
241 28-04-2020 16:03:18 17.1 C 32 %
242 28-04-2020 16:13:18 16.7 C 32 %
243 28-04-2020 16:23:17 16.9 C 32 %
244 28-04-2020 16:33:17 18.5 C 30 %
245 28-04-2020 16:43:17 20.1 C 26 %
246 28-04-2020 16:53:17 19.4 C 27 %
247 28-04-2020 17:03:17 17.6 C 30 %
248 28-04-2020 17:13:17 17.4 C 30 %
249 28-04-2020 17:23:17 17.2 C 29 %
250 28-04-2020 17:33:17 17 C 30 %
Sensor: Nr:Datum:Temp:Feuchte:
Aussen-T/F 251 28-04-2020 17:43:17 16.8 C 30 %
252 28-04-2020 17:53:17 17.6 C 28 %
253 28-04-2020 18:03:17 18.2 C 27 %
254 28-04-2020 18:13:17 17.4 C 29 %
255 28-04-2020 18:23:17 18 C 28 %
256 28-04-2020 18:33:18 17.6 C 28 %
257 28-04-2020 18:43:18 17.7 C 28 %
258 28-04-2020 18:53:17 16.6 C 30 %
259 28-04-2020 19:03:17 16.3 C 30 %
260 28-04-2020 19:13:17 16.3 C 30 %
261 28-04-2020 19:23:17 16.3 C 30 %
262 28-04-2020 19:33:18 16.4 C 30 %
263 28-04-2020 19:43:18 16.5 C 30 %
264 28-04-2020 19:53:17 16.1 C 30 %
265 28-04-2020 20:03:18 15 C 32 %
266 28-04-2020 20:13:18 14.2 C 35 %
267 28-04-2020 20:23:17 13.6 C 37 %
268 28-04-2020 20:33:17 13.4 C 37 %
269 28-04-2020 20:43:18 13.1 C 37 %
270 28-04-2020 20:53:17 13 C 38 %
271 28-04-2020 21:03:17 12.5 C 39 %
272 28-04-2020 21:13:17 13.5 C 36 %
273 28-04-2020 21:23:17 13.9 C 35 %
274 28-04-2020 21:33:17 14.6 C 34 %
275 28-04-2020 21:43:17 14.4 C 34 %
Sensor: Nr:Datum:Temp:Feuchte:
Aussen-T/F 276 28-04-2020 21:53:17 14.2 C 34 %
277 28-04-2020 22:03:17 13.4 C 35 %
278 28-04-2020 22:13:17 12.8 C 37 %
279 28-04-2020 22:23:17 12.8 C 37 %
280 28-04-2020 22:33:17 13 C 36 %
281 28-04-2020 22:43:17 13.1 C 36 %
282 28-04-2020 22:53:18 12.9 C 37 %
283 28-04-2020 23:03:17 12.7 C 38 %
284 28-04-2020 23:13:18 12.7 C 38 %
285 28-04-2020 23:23:18 12.7 C 38 %
286 28-04-2020 23:33:18 12.7 C 38 %
287 28-04-2020 23:43:18 12.5 C 39 %
288 28-04-2020 23:53:18 12.2 C 39 %
289 29-04-2020 00:03:17 12.2 C 39 %
290 29-04-2020 00:13:17 12.2 C 39 %
291 29-04-2020 00:23:17 12.1 C 39 %
292 29-04-2020 00:33:18 11.8 C 40 %
293 29-04-2020 00:43:18 11.5 C 40 %
294 29-04-2020 00:53:18 11.5 C 40 %
295 29-04-2020 01:03:18 11.5 C 40 %
296 29-04-2020 01:13:18 11.6 C 40 %
297 29-04-2020 01:23:17 11.7 C 40 %
298 29-04-2020 01:33:17 11.6 C 42 %
299 29-04-2020 01:43:17 11.4 C 43 %
300 29-04-2020 01:53:17 11.4 C 44 %
Sensor: Nr:Datum:Temp:Feuchte:
Aussen-T/F 301 29-04-2020 02:03:17 11.4 C 44 %
302 29-04-2020 02:13:17 11.4 C 41 %
303 29-04-2020 02:23:17 12.3 C 37 %
304 29-04-2020 02:33:18 12.6 C 37 %
305 29-04-2020 02:43:18 12.5 C 36 %
306 29-04-2020 02:53:17 12.1 C 36 %
307 29-04-2020 03:03:17 12 C 36 %
308 29-04-2020 03:13:17 11.4 C 39 %
309 29-04-2020 03:23:17 11.5 C 39 %
310 29-04-2020 03:33:17 11.7 C 39 %
311 29-04-2020 03:43:17 12 C 37 %
312 29-04-2020 03:53:17 12.1 C 37 %
313 29-04-2020 04:03:17 11.9 C 39 %
314 29-04-2020 04:13:17 11.9 C 39 %
315 29-04-2020 04:23:17 11.7 C 39 %
316 29-04-2020 04:33:17 11.9 C 38 %
317 29-04-2020 04:43:18 11.6 C 39 %
318 29-04-2020 04:53:17 11.4 C 39 %
319 29-04-2020 05:03:18 11.7 C 39 %
320 29-04-2020 05:13:18 11.5 C 39 %
321 29-04-2020 05:23:18 11.7 C 39 %
322 29-04-2020 05:33:17 11.5 C 39 %
323 29-04-2020 05:43:17 11.4 C 39 %
324 29-04-2020 05:53:17 11.3 C 40 %
325 29-04-2020 06:03:18 11.3 C 40 %
Sensor: Nr:Datum:Temp:Feuchte:
Aussen-T/F 326 29-04-2020 06:13:18 11.5 C 39 %
327 29-04-2020 06:23:17 11.6 C 38 %
328 29-04-2020 06:33:17 11.2 C 39 %
329 29-04-2020 06:43:17 11 C 40 %
330 29-04-2020 06:53:17 11.2 C 40 %
331 29-04-2020 07:03:17 11.5 C 39 %
332 29-04-2020 07:13:17 11.9 C 39 %
333 29-04-2020 07:23:17 12.1 C 37 %
334 29-04-2020 07:33:17 12.3 C 37 %
335 29-04-2020 07:43:17 12.4 C 36 %
336 29-04-2020 07:53:17 12.7 C 36 %
337 29-04-2020 08:03:17 12.9 C 36 %
338 29-04-2020 08:13:17 12.9 C 36 %
339 29-04-2020 08:23:17 12.7 C 36 %
340 29-04-2020 08:33:17 12.6 C 36 %
341 29-04-2020 08:43:17 12.5 C 36 %
342 29-04-2020 08:53:17 13 C 35 %
343 29-04-2020 09:03:17 13.1 C 35 %
344 29-04-2020 09:13:17 13.2 C 35 %
345 29-04-2020 09:23:17 13.5 C 34 %
346 29-04-2020 09:33:17 13.6 C 33 %
347 29-04-2020 09:43:17 13.9 C 32 %
348 29-04-2020 09:53:17 14.1 C 32 %
349 29-04-2020 10:03:17 14.5 C 31 %
350 29-04-2020 10:13:17 14.8 C 30 %
Sensor: Nr:Datum:Temp:Feuchte:
Aussen-T/F 351 29-04-2020 10:23:17 15.1 C 29 %
352 29-04-2020 10:33:17 14.8 C 30 %
353 29-04-2020 10:43:17 15 C 29 %
354 29-04-2020 10:53:17 15.5 C 28 %
355 29-04-2020 11:03:17 16 C 28 %
356 29-04-2020 11:13:17 16 C 28 %
357 29-04-2020 11:23:17 16.3 C 27 %
358 29-04-2020 11:33:18 16.8 C 27 %
359 29-04-2020 11:43:18 16.9 C 25 %
360 29-04-2020 11:53:17 17.1 C 25 %
361 29-04-2020 12:03:18 17.5 C 25 %
362 29-04-2020 12:13:18 16.4 C 25 %
363 29-04-2020 12:23:17 15.5 C 26 %
364 29-04-2020 12:33:17 15.9 C 26 %
365 29-04-2020 12:43:17 16.3 C 25 %
366 29-04-2020 12:53:17 16.2 C 25 %
367 29-04-2020 13:03:17 17.5 C 25 %
368 29-04-2020 13:13:17 16.4 C 25 %
369 29-04-2020 13:23:18 16.1 C 25 %
370 29-04-2020 13:33:18 17.5 C 25 %
371 29-04-2020 13:43:18 17.3 C 25 %
372 29-04-2020 13:53:18 16.6 C 25 %
373 29-04-2020 14:03:18 16.7 C 26 %
374 29-04-2020 14:13:18 15.7 C 26 %
375 29-04-2020 14:23:18 15.9 C 26 %
Sensor: Nr:Datum:Temp:Feuchte:
Aussen-T/F 376 29-04-2020 14:33:17 16.1 C 26 %
377 29-04-2020 14:43:17 19.2 C 22 %
378 29-04-2020 14:53:17 21.1 C 20 %
379 29-04-2020 15:03:17 20.9 C 20 %
380 29-04-2020 15:13:17 22.7 C 20 %
381 29-04-2020 15:23:17 22.3 C 20 %
382 29-04-2020 15:33:17 19.6 C 20 %
383 29-04-2020 15:43:17 18.7 C 20 %
384 29-04-2020 15:53:17 19.2 C 20 %
385 29-04-2020 16:03:17 17.4 C 22 %
386 29-04-2020 16:13:17 17.9 C 22 %
387 29-04-2020 16:23:17 18.4 C 20 %
388 29-04-2020 16:33:17 17.7 C 21 %
389 29-04-2020 16:43:17 20.2 C 20 %
390 29-04-2020 16:53:17 18.2 C 20 %
391 29-04-2020 17:03:17 17.4 C 22 %
392 29-04-2020 17:13:17 16 C 25 %
393 29-04-2020 17:23:17 19.4 C 23 %
394 29-04-2020 17:33:17 21.1 C 20 %
395 29-04-2020 17:43:17 21.2 C 20 %
396 29-04-2020 17:53:17 20.2 C 20 %
397 29-04-2020 18:03:17 21 C 20 %
398 29-04-2020 18:13:18 17.5 C 21 %
399 29-04-2020 18:23:17 17.4 C 21 %
400 29-04-2020 18:33:17 17.7 C 22 %
Sensor: Nr:Datum:Temp:Feuchte:
Aussen-T/F 401 29-04-2020 18:43:17 17.9 C 22 %
402 29-04-2020 18:53:17 17.2 C 23 %
403 29-04-2020 19:03:18 17 C 25 %
404 29-04-2020 19:13:18 17.5 C 24 %
405 29-04-2020 19:23:17 17.5 C 23 %
406 29-04-2020 19:33:17 17.1 C 23 %
407 29-04-2020 19:43:18 16.7 C 24 %
408 29-04-2020 19:53:17 16.1 C 25 %
409 29-04-2020 20:03:18 15.4 C 26 %
410 29-04-2020 20:13:18 15 C 26 %
411 29-04-2020 20:23:18 14.7 C 29 %
412 29-04-2020 20:33:17 14.5 C 29 %
413 29-04-2020 20:43:17 14.5 C 28 %
414 29-04-2020 20:53:18 14.4 C 28 %
415 29-04-2020 21:03:18 13.8 C 30 %
416 29-04-2020 21:13:18 13.2 C 31 %
417 29-04-2020 21:23:17 12.9 C 33 %
418 29-04-2020 21:33:17 13 C 32 %
419 29-04-2020 21:43:17 13.5 C 32 %
420 29-04-2020 21:53:17 13.2 C 32 %
421 29-04-2020 22:03:18 13 C 32 %
422 29-04-2020 22:13:18 13.2 C 33 %
423 29-04-2020 22:23:17 13.5 C 32 %
424 29-04-2020 22:33:17 13.3 C 32 %
425 29-04-2020 22:43:17 13.1 C 32 %
Sensor: Nr:Datum:Temp:Feuchte:
Aussen-T/F 426 29-04-2020 22:53:18 13.3 C 33 %
427 29-04-2020 23:03:18 12.8 C 35 %
428 29-04-2020 23:13:18 12.8 C 35 %
429 29-04-2020 23:23:17 13 C 34 %
430 29-04-2020 23:33:17 13.2 C 33 %
431 29-04-2020 23:43:17 13.2 C 34 %
432 29-04-2020 23:53:18 12.9 C 35 %
Sensor: Nr:Datum:Temp:Feuchte:
G-T/H 1 27-04-2020 00:03:18 13.3 C 55 %
2 27-04-2020 00:13:18 13.2 C 55 %
3 27-04-2020 00:23:18 13.2 C 55 %
4 27-04-2020 00:33:17 13.2 C 55 %
5 27-04-2020 00:43:17 13.2 C 55 %
6 27-04-2020 00:53:17 13.2 C 55 %
7 27-04-2020 01:03:18 13.2 C 55 %
8 27-04-2020 01:13:18 13.2 C 55 %
9 27-04-2020 01:23:18 13.2 C 55 %
10 27-04-2020 01:33:17 13.2 C 55 %
11 27-04-2020 01:43:17 13.2 C 55 %
12 27-04-2020 01:53:17 13.2 C 55 %
13 27-04-2020 02:03:17 13.2 C 55 %
14 27-04-2020 02:13:17 13.2 C 55 %
15 27-04-2020 02:23:17 13.2 C 55 %
16 27-04-2020 02:33:17 13.2 C 55 %
17 27-04-2020 02:43:17 13.2 C 55 %
18 27-04-2020 02:53:17 13.2 C 55 %
19 27-04-2020 03:03:18 13.1 C 55 %
20 27-04-2020 03:13:18 13.1 C 55 %
21 27-04-2020 03:23:18 13.1 C 55 %
22 27-04-2020 03:33:17 13.1 C 55 %
23 27-04-2020 03:43:17 13.1 C 55 %
24 27-04-2020 03:53:17 13.1 C 55 %
25 27-04-2020 04:03:18 13.1 C 55 %
Sensor: Nr:Datum:Temp:Feuchte:
G-T/H 26 27-04-2020 04:13:18 13.1 C 55 %
27 27-04-2020 04:23:17 13.1 C 55 %
28 27-04-2020 04:33:18 13.1 C 55 %
29 27-04-2020 04:43:18 13.1 C 55 %
30 27-04-2020 04:53:17 13.1 C 55 %
31 27-04-2020 05:03:17 13 C 55 %
32 27-04-2020 05:13:17 13 C 55 %
33 27-04-2020 05:23:17 13 C 55 %
34 27-04-2020 05:33:17 13 C 55 %
35 27-04-2020 05:43:17 13 C 55 %
36 27-04-2020 05:53:17 13 C 55 %
37 27-04-2020 06:03:18 13 C 55 %
38 27-04-2020 06:13:18 12.9 C 56 %
39 27-04-2020 06:23:17 12.9 C 56 %
40 27-04-2020 06:33:17 12.9 C 56 %
41 27-04-2020 06:43:17 12.9 C 56 %
42 27-04-2020 06:53:17 12.9 C 56 %
43 27-04-2020 07:03:17 12.8 C 56 %
44 27-04-2020 07:13:17 12.8 C 56 %
45 27-04-2020 07:23:17 12.8 C 56 %
46 27-04-2020 07:33:17 12.8 C 56 %
47 27-04-2020 07:43:17 12.8 C 56 %
48 27-04-2020 07:53:17 12.8 C 56 %
49 27-04-2020 08:03:17 12.8 C 56 %
50 27-04-2020 08:13:17 12.8 C 56 %
Sensor: Nr:Datum:Temp:Feuchte:
G-T/H 51 27-04-2020 08:23:17 12.8 C 56 %
52 27-04-2020 08:33:17 12.8 C 56 %
53 27-04-2020 08:43:17 12.7 C 56 %
54 27-04-2020 08:53:17 12.7 C 56 %
55 27-04-2020 09:03:18 12.7 C 56 %
56 27-04-2020 09:13:18 12.7 C 56 %
57 27-04-2020 09:23:17 12.7 C 56 %
58 27-04-2020 09:33:17 12.7 C 56 %
59 27-04-2020 09:43:17 12.6 C 56 %
60 27-04-2020 09:53:17 12.7 C 57 %
61 27-04-2020 10:03:17 12.6 C 57 %
62 27-04-2020 10:13:17 12.6 C 57 %
63 27-04-2020 10:23:17 12.6 C 57 %
64 27-04-2020 10:33:17 12.6 C 57 %
65 27-04-2020 10:43:17 12.6 C 57 %
66 27-04-2020 10:53:17 12.6 C 57 %
67 27-04-2020 11:03:17 12.6 C 57 %
68 27-04-2020 11:13:17 12.6 C 57 %
69 27-04-2020 11:23:17 12.6 C 57 %
70 27-04-2020 11:33:17 12.6 C 57 %
71 27-04-2020 11:43:17 12.6 C 57 %
72 27-04-2020 11:53:17 12.6 C 58 %
73 27-04-2020 12:03:17 12.6 C 58 %
74 27-04-2020 12:13:17 12.6 C 58 %
75 27-04-2020 12:23:17 12.7 C 58 %
Sensor: Nr:Datum:Temp:Feuchte:
G-T/H 76 27-04-2020 12:33:17 12.7 C 58 %
77 27-04-2020 12:43:17 12.7 C 58 %
78 27-04-2020 12:53:18 12.7 C 58 %
79 27-04-2020 13:03:17 12.7 C 58 %
80 27-04-2020 13:13:17 12.8 C 58 %
81 27-04-2020 13:23:17 12.7 C 58 %
82 27-04-2020 13:33:17 12.8 C 58 %
83 27-04-2020 13:43:17 12.8 C 58 %
84 27-04-2020 13:53:17 12.8 C 58 %
85 27-04-2020 14:03:18 12.8 C 58 %
86 27-04-2020 14:13:18 12.9 C 58 %
87 27-04-2020 14:23:17 12.9 C 58 %
88 27-04-2020 14:33:18 13 C 57 %
89 27-04-2020 14:43:18 12.9 C 58 %
90 27-04-2020 14:53:17 13 C 58 %
91 27-04-2020 15:03:17 13 C 58 %
92 27-04-2020 15:13:17 13 C 58 %
93 27-04-2020 15:23:17 13.1 C 58 %
94 27-04-2020 15:33:17 13.1 C 58 %
95 27-04-2020 15:43:17 13.1 C 58 %
96 27-04-2020 15:53:17 13.1 C 59 %
97 27-04-2020 16:03:17 13.2 C 59 %
98 27-04-2020 16:13:17 13.2 C 59 %
99 27-04-2020 16:23:17 13.2 C 59 %
100 27-04-2020 16:33:17 13.2 C 59 %
Sensor: Nr:Datum:Temp:Feuchte:
G-T/H 101 27-04-2020 16:43:17 13.3 C 59 %
102 27-04-2020 16:53:17 13.3 C 59 %
103 27-04-2020 17:03:18 13.3 C 59 %
104 27-04-2020 17:13:18 13.3 C 59 %
105 27-04-2020 17:23:17 13.4 C 59 %
106 27-04-2020 17:33:17 13.4 C 59 %
107 27-04-2020 17:43:17 13.4 C 60 %
108 27-04-2020 17:53:17 13.4 C 60 %
109 27-04-2020 18:03:17 13.4 C 60 %
110 27-04-2020 18:13:17 13.4 C 60 %
111 27-04-2020 18:23:17 13.5 C 60 %
112 27-04-2020 18:33:18 13.5 C 60 %
113 27-04-2020 18:43:18 13.5 C 60 %
114 27-04-2020 18:53:17 13.6 C 60 %
115 27-04-2020 19:03:17 13.6 C 60 %
116 27-04-2020 19:13:17 13.6 C 60 %
117 27-04-2020 19:23:18 13.6 C 60 %
118 27-04-2020 19:33:17 13.6 C 60 %
119 27-04-2020 19:43:18 13.7 C 60 %
120 27-04-2020 19:53:17 13.7 C 60 %
121 27-04-2020 20:03:17 13.7 C 60 %
122 27-04-2020 20:13:17 13.7 C 60 %
123 27-04-2020 20:23:17 13.7 C 60 %
124 27-04-2020 20:33:17 13.7 C 60 %
125 27-04-2020 20:43:17 13.7 C 60 %
Sensor: Nr:Datum:Temp:Feuchte:
G-T/H 126 27-04-2020 20:53:18 13.7 C 60 %
127 27-04-2020 21:03:17 13.7 C 60 %
128 27-04-2020 21:13:17 13.8 C 60 %
129 27-04-2020 21:23:17 13.8 C 60 %
130 27-04-2020 21:33:18 13.8 C 60 %
131 27-04-2020 21:43:18 13.7 C 60 %
132 27-04-2020 21:53:17 13.7 C 60 %
133 27-04-2020 22:03:18 13.8 C 60 %
134 27-04-2020 22:13:18 13.8 C 60 %
135 27-04-2020 22:23:17 13.8 C 60 %
136 27-04-2020 22:33:17 13.8 C 60 %
137 27-04-2020 22:43:17 13.8 C 60 %
138 27-04-2020 22:53:18 13.8 C 60 %
139 27-04-2020 23:03:17 13.8 C 60 %
140 27-04-2020 23:13:17 13.8 C 60 %
141 27-04-2020 23:23:17 13.8 C 60 %
142 27-04-2020 23:33:17 13.8 C 60 %
143 27-04-2020 23:43:17 13.8 C 60 %
144 27-04-2020 23:53:18 13.8 C 60 %
145 28-04-2020 00:03:17 13.8 C 60 %
146 28-04-2020 00:13:17 13.8 C 60 %
147 28-04-2020 00:23:17 13.8 C 60 %
148 28-04-2020 00:33:18 13.8 C 60 %
149 28-04-2020 00:43:18 13.8 C 60 %
150 28-04-2020 00:53:17 13.8 C 60 %
Sensor: Nr:Datum:Temp:Feuchte:
G-T/H 151 28-04-2020 01:03:18 13.8 C 60 %
152 28-04-2020 01:13:18 13.8 C 60 %
153 28-04-2020 01:23:17 13.8 C 60 %
154 28-04-2020 01:33:17 13.8 C 60 %
155 28-04-2020 01:43:18 13.8 C 60 %
156 28-04-2020 01:53:17 13.8 C 60 %
157 28-04-2020 02:03:18 13.8 C 60 %
158 28-04-2020 02:13:18 13.8 C 60 %
159 28-04-2020 02:23:17 13.8 C 60 %
160 28-04-2020 02:33:18 13.8 C 60 %
161 28-04-2020 02:43:18 13.7 C 60 %
162 28-04-2020 02:53:18 13.8 C 60 %
163 28-04-2020 03:03:17 13.7 C 60 %
164 28-04-2020 03:13:17 13.8 C 60 %
165 28-04-2020 03:23:17 13.8 C 60 %
166 28-04-2020 03:33:18 13.8 C 60 %
167 28-04-2020 03:43:18 13.8 C 60 %
168 28-04-2020 03:53:18 13.7 C 60 %
169 28-04-2020 04:03:18 13.7 C 60 %
170 28-04-2020 04:13:18 13.7 C 60 %
171 28-04-2020 04:23:18 13.7 C 60 %
172 28-04-2020 04:33:18 13.7 C 60 %
173 28-04-2020 04:43:18 13.7 C 60 %
174 28-04-2020 04:53:17 13.7 C 60 %
175 28-04-2020 05:03:17 13.7 C 60 %
Sensor: Nr:Datum:Temp:Feuchte:
G-T/H 176 28-04-2020 05:13:17 13.7 C 60 %
177 28-04-2020 05:23:17 13.7 C 60 %
178 28-04-2020 05:33:18 13.6 C 60 %
179 28-04-2020 05:43:18 13.6 C 60 %
180 28-04-2020 05:53:17 13.6 C 60 %
181 28-04-2020 06:03:17 13.6 C 60 %
182 28-04-2020 06:13:17 13.6 C 60 %
183 28-04-2020 06:23:17 13.6 C 60 %
184 28-04-2020 06:33:18 13.6 C 60 %
185 28-04-2020 06:43:18 13.6 C 60 %
186 28-04-2020 06:53:17 13.6 C 60 %
187 28-04-2020 07:03:18 13.6 C 60 %
188 28-04-2020 07:13:18 13.5 C 60 %
189 28-04-2020 07:23:18 13.5 C 60 %
190 28-04-2020 07:33:17 13.5 C 60 %
191 28-04-2020 07:43:17 13.5 C 60 %
192 28-04-2020 07:53:17 13.5 C 60 %
193 28-04-2020 08:03:17 13.5 C 60 %
194 28-04-2020 08:13:17 13.5 C 60 %
195 28-04-2020 08:23:17 13.5 C 60 %
196 28-04-2020 08:33:17 13.5 C 60 %
197 28-04-2020 08:43:17 13.5 C 60 %
198 28-04-2020 08:53:17 13.5 C 60 %
199 28-04-2020 09:03:17 13.5 C 60 %
200 28-04-2020 09:13:17 13.5 C 61 %
Sensor: Nr:Datum:Temp:Feuchte:
G-T/H 201 28-04-2020 09:23:17 13.5 C 61 %
202 28-04-2020 09:33:18 13.5 C 61 %
203 28-04-2020 09:43:18 13.5 C 61 %
204 28-04-2020 09:53:17 13.5 C 61 %
205 28-04-2020 10:03:17 13.5 C 61 %
206 28-04-2020 10:13:17 13.5 C 61 %
207 28-04-2020 10:23:18 13.5 C 61 %
208 28-04-2020 10:33:17 13.5 C 61 %
209 28-04-2020 10:43:17 13.5 C 61 %
210 28-04-2020 10:53:17 13.4 C 61 %
211 28-04-2020 11:03:17 13.5 C 61 %
212 28-04-2020 11:13:17 13.5 C 61 %
213 28-04-2020 11:23:17 13.5 C 61 %
214 28-04-2020 11:33:17 13.5 C 61 %
215 28-04-2020 11:43:17 13.5 C 61 %
216 28-04-2020 11:53:17 13.5 C 61 %
217 28-04-2020 12:03:17 13.5 C 62 %
218 28-04-2020 12:13:17 13.5 C 62 %
219 28-04-2020 12:23:17 13.5 C 62 %
220 28-04-2020 12:33:17 13.5 C 62 %
221 28-04-2020 12:43:17 13.5 C 62 %
222 28-04-2020 12:53:17 13.5 C 62 %
223 28-04-2020 13:03:18 13.5 C 62 %
224 28-04-2020 13:13:18 13.5 C 62 %
225 28-04-2020 13:23:17 13.4 C 62 %
Sensor: Nr:Datum:Temp:Feuchte:
G-T/H 226 28-04-2020 13:33:17 13.5 C 62 %
227 28-04-2020 13:43:17 13.5 C 62 %
228 28-04-2020 13:53:17 13.5 C 62 %
229 28-04-2020 14:03:17 13.5 C 62 %
230 28-04-2020 14:13:17 13.5 C 63 %
231 28-04-2020 14:23:18 13.5 C 63 %
232 28-04-2020 14:33:18 13.5 C 63 %
233 28-04-2020 14:43:18 13.6 C 63 %
234 28-04-2020 14:53:17 13.6 C 63 %
235 28-04-2020 15:03:17 13.6 C 63 %
236 28-04-2020 15:13:17 13.6 C 63 %
237 28-04-2020 15:23:17 13.6 C 63 %
238 28-04-2020 15:33:17 13.6 C 64 %
239 28-04-2020 15:43:17 13.6 C 64 %
240 28-04-2020 15:53:17 13.6 C 64 %
241 28-04-2020 16:03:18 13.6 C 64 %
242 28-04-2020 16:13:18 13.6 C 64 %
243 28-04-2020 16:23:17 13.6 C 64 %
244 28-04-2020 16:33:17 13.7 C 64 %
245 28-04-2020 16:43:17 13.7 C 64 %
246 28-04-2020 16:53:17 13.7 C 64 %
247 28-04-2020 17:03:17 13.7 C 64 %
248 28-04-2020 17:13:17 13.7 C 64 %
249 28-04-2020 17:23:17 13.7 C 64 %
250 28-04-2020 17:33:17 13.7 C 64 %
Sensor: Nr:Datum:Temp:Feuchte:
G-T/H 251 28-04-2020 17:43:17 13.7 C 64 %
252 28-04-2020 17:53:17 13.7 C 64 %
253 28-04-2020 18:03:17 13.7 C 64 %
254 28-04-2020 18:13:17 13.8 C 64 %
255 28-04-2020 18:23:17 13.8 C 65 %
256 28-04-2020 18:33:18 13.8 C 65 %
257 28-04-2020 18:43:18 13.8 C 65 %
258 28-04-2020 18:53:17 13.8 C 65 %
259 28-04-2020 19:03:17 13.8 C 65 %
260 28-04-2020 19:13:17 13.8 C 65 %
261 28-04-2020 19:23:17 13.8 C 65 %
262 28-04-2020 19:33:18 13.8 C 65 %
263 28-04-2020 19:43:18 13.8 C 65 %
264 28-04-2020 19:53:17 13.9 C 65 %
265 28-04-2020 20:03:18 13.9 C 65 %
266 28-04-2020 20:13:18 13.9 C 65 %
267 28-04-2020 20:23:17 13.8 C 65 %
268 28-04-2020 20:33:17 13.8 C 65 %
269 28-04-2020 20:43:18 13.8 C 65 %
270 28-04-2020 20:53:17 13.8 C 65 %
271 28-04-2020 21:03:17 13.8 C 65 %
272 28-04-2020 21:13:17 13.8 C 65 %
273 28-04-2020 21:23:17 13.8 C 65 %
274 28-04-2020 21:33:17 13.9 C 64 %
275 28-04-2020 21:43:17 13.9 C 64 %
Sensor: Nr:Datum:Temp:Feuchte:
G-T/H 276 28-04-2020 21:53:17 13.8 C 64 %
277 28-04-2020 22:03:17 13.8 C 64 %
278 28-04-2020 22:13:17 13.8 C 64 %
279 28-04-2020 22:23:17 13.8 C 64 %
280 28-04-2020 22:33:17 13.8 C 64 %
281 28-04-2020 22:43:17 13.9 C 64 %
282 28-04-2020 22:53:18 13.8 C 64 %
283 28-04-2020 23:03:17 13.9 C 64 %
284 28-04-2020 23:13:18 13.8 C 64 %
285 28-04-2020 23:23:18 13.8 C 64 %
286 28-04-2020 23:33:18 13.8 C 64 %
287 28-04-2020 23:43:18 13.8 C 64 %
288 28-04-2020 23:53:18 13.8 C 64 %
289 29-04-2020 00:03:17 13.8 C 64 %
290 29-04-2020 00:13:17 13.8 C 64 %
291 29-04-2020 00:23:17 13.8 C 64 %
292 29-04-2020 00:33:18 13.8 C 64 %
293 29-04-2020 00:43:18 13.8 C 64 %
294 29-04-2020 00:53:18 13.8 C 64 %
295 29-04-2020 01:03:18 13.8 C 64 %
296 29-04-2020 01:13:18 13.8 C 64 %
297 29-04-2020 01:23:17 13.8 C 64 %
298 29-04-2020 01:33:17 13.8 C 64 %
299 29-04-2020 01:43:17 13.8 C 64 %
300 29-04-2020 01:53:17 13.8 C 64 %
Sensor: Nr:Datum:Temp:Feuchte:
G-T/H 301 29-04-2020 02:03:17 13.8 C 64 %
302 29-04-2020 02:13:17 13.8 C 64 %
303 29-04-2020 02:23:17 13.8 C 64 %
304 29-04-2020 02:33:18 13.8 C 64 %
305 29-04-2020 02:43:18 13.8 C 64 %
306 29-04-2020 02:53:17 13.8 C 64 %
307 29-04-2020 03:03:17 13.8 C 64 %
308 29-04-2020 03:13:17 13.8 C 64 %
309 29-04-2020 03:23:17 13.7 C 64 %
310 29-04-2020 03:33:17 13.8 C 64 %
311 29-04-2020 03:43:17 13.7 C 64 %
312 29-04-2020 03:53:17 13.7 C 64 %
313 29-04-2020 04:03:17 13.7 C 64 %
314 29-04-2020 04:13:17 13.7 C 64 %
315 29-04-2020 04:23:17 13.7 C 64 %
316 29-04-2020 04:33:17 13.7 C 64 %
317 29-04-2020 04:43:18 13.7 C 64 %
318 29-04-2020 04:53:17 13.7 C 64 %
319 29-04-2020 05:03:18 13.7 C 64 %
320 29-04-2020 05:13:18 13.7 C 64 %
321 29-04-2020 05:23:18 13.7 C 64 %
322 29-04-2020 05:33:17 13.7 C 64 %
323 29-04-2020 05:43:17 13.7 C 64 %
324 29-04-2020 05:53:17 13.7 C 64 %
325 29-04-2020 06:03:18 13.7 C 64 %
Sensor: Nr:Datum:Temp:Feuchte:
G-T/H 326 29-04-2020 06:13:18 13.7 C 64 %
327 29-04-2020 06:23:17 13.7 C 64 %
328 29-04-2020 06:33:17 13.7 C 64 %
329 29-04-2020 06:43:17 13.7 C 64 %
330 29-04-2020 06:53:17 13.6 C 64 %
331 29-04-2020 07:03:17 13.6 C 64 %
332 29-04-2020 07:13:17 13.6 C 64 %
333 29-04-2020 07:23:17 13.6 C 64 %
334 29-04-2020 07:33:17 13.6 C 64 %
335 29-04-2020 07:43:17 13.6 C 64 %
336 29-04-2020 07:53:17 13.6 C 64 %
337 29-04-2020 08:03:17 13.6 C 64 %
338 29-04-2020 08:13:17 13.6 C 64 %
339 29-04-2020 08:23:17 13.6 C 64 %
340 29-04-2020 08:33:17 13.6 C 64 %
341 29-04-2020 08:43:17 13.6 C 64 %
342 29-04-2020 08:53:17 13.6 C 64 %
343 29-04-2020 09:03:17 13.6 C 64 %
344 29-04-2020 09:13:17 13.6 C 64 %
345 29-04-2020 09:23:17 13.6 C 64 %
346 29-04-2020 09:33:17 13.6 C 64 %
347 29-04-2020 09:43:17 13.6 C 64 %
348 29-04-2020 09:53:17 13.6 C 64 %
349 29-04-2020 10:03:17 13.6 C 64 %
350 29-04-2020 10:13:17 13.6 C 64 %
Sensor: Nr:Datum:Temp:Feuchte:
G-T/H 351 29-04-2020 10:23:17 13.6 C 64 %
352 29-04-2020 10:33:17 13.6 C 64 %
353 29-04-2020 10:43:17 13.6 C 65 %
354 29-04-2020 10:53:17 13.6 C 65 %
355 29-04-2020 11:03:17 13.6 C 65 %
356 29-04-2020 11:13:17 13.6 C 65 %
357 29-04-2020 11:23:17 13.6 C 65 %
358 29-04-2020 11:33:18 13.6 C 65 %
359 29-04-2020 11:43:18 13.6 C 65 %
360 29-04-2020 11:53:17 13.6 C 65 %
361 29-04-2020 12:03:18 13.7 C 65 %
362 29-04-2020 12:13:18 13.7 C 65 %
363 29-04-2020 12:23:17 13.7 C 65 %
364 29-04-2020 12:33:17 13.7 C 65 %
365 29-04-2020 12:43:17 13.7 C 65 %
366 29-04-2020 12:53:17 13.7 C 65 %
367 29-04-2020 13:03:17 13.7 C 65 %
368 29-04-2020 13:13:17 13.7 C 65 %
369 29-04-2020 13:23:18 13.7 C 65 %
370 29-04-2020 13:33:18 13.7 C 65 %
371 29-04-2020 13:43:18 13.7 C 65 %
372 29-04-2020 13:53:18 13.8 C 65 %
373 29-04-2020 14:03:18 13.8 C 65 %
374 29-04-2020 14:13:18 13.8 C 65 %
375 29-04-2020 14:23:18 13.8 C 65 %
Sensor: Nr:Datum:Temp:Feuchte:
G-T/H 376 29-04-2020 14:33:17 13.8 C 65 %
377 29-04-2020 14:43:17 13.8 C 65 %
378 29-04-2020 14:53:17 13.8 C 65 %
379 29-04-2020 15:03:17 13.8 C 65 %
380 29-04-2020 15:13:17 13.9 C 65 %
381 29-04-2020 15:23:17 13.9 C 65 %
382 29-04-2020 15:33:17 13.9 C 65 %
383 29-04-2020 15:43:17 13.9 C 65 %
384 29-04-2020 15:53:17 13.9 C 65 %
385 29-04-2020 16:03:17 13.9 C 65 %
386 29-04-2020 16:13:17 14 C 64 %
387 29-04-2020 16:23:17 14 C 65 %
388 29-04-2020 16:33:17 14 C 65 %
389 29-04-2020 16:43:17 14 C 65 %
390 29-04-2020 16:53:17 14 C 65 %
391 29-04-2020 17:03:17 14 C 65 %
392 29-04-2020 17:13:17 14 C 65 %
393 29-04-2020 17:23:17 14.1 C 65 %
394 29-04-2020 17:33:17 14.1 C 65 %
395 29-04-2020 17:43:17 14.1 C 65 %
396 29-04-2020 17:53:17 14.1 C 65 %
397 29-04-2020 18:03:17 14.1 C 65 %
398 29-04-2020 18:13:18 14.1 C 65 %
399 29-04-2020 18:23:17 14.1 C 65 %
400 29-04-2020 18:33:17 14.1 C 65 %
Sensor: Nr:Datum:Temp:Feuchte:
G-T/H 401 29-04-2020 18:43:17 14.2 C 65 %
402 29-04-2020 18:53:17 14.1 C 65 %
403 29-04-2020 19:03:18 14.2 C 65 %
404 29-04-2020 19:13:18 14.2 C 65 %
405 29-04-2020 19:23:17 14.2 C 65 %
406 29-04-2020 19:33:17 14.2 C 65 %
407 29-04-2020 19:43:18 14.2 C 65 %
408 29-04-2020 19:53:17 14.3 C 65 %
409 29-04-2020 20:03:18 14.3 C 65 %
410 29-04-2020 20:13:18 14.2 C 65 %
411 29-04-2020 20:23:18 14.2 C 65 %
412 29-04-2020 20:33:17 14.2 C 65 %
413 29-04-2020 20:43:17 14.2 C 65 %
414 29-04-2020 20:53:18 14.2 C 65 %
415 29-04-2020 21:03:18 14.2 C 65 %
416 29-04-2020 21:13:18 14.2 C 65 %
417 29-04-2020 21:23:17 14.2 C 65 %
418 29-04-2020 21:33:17 14.2 C 65 %
419 29-04-2020 21:43:17 14.2 C 65 %
420 29-04-2020 21:53:17 14.2 C 65 %
421 29-04-2020 22:03:18 14.2 C 65 %
422 29-04-2020 22:13:18 14.2 C 65 %
423 29-04-2020 22:23:17 14.2 C 65 %
424 29-04-2020 22:33:17 14.2 C 65 %
425 29-04-2020 22:43:17 14.2 C 65 %
Sensor: Nr:Datum:Temp:Feuchte:
G-T/H 426 29-04-2020 22:53:18 14.2 C 65 %
427 29-04-2020 23:03:18 14.2 C 65 %
428 29-04-2020 23:13:18 14.2 C 65 %
429 29-04-2020 23:23:17 14.2 C 65 %
430 29-04-2020 23:33:17 14.2 C 65 %
431 29-04-2020 23:43:17 14.3 C 65 %
432 29-04-2020 23:53:18 14.2 C 65 %

Legende:
   Min
   Max


Maximal/Minimal-Werte vom 27.04.2020 - 29.04.2020

Sensor Min Max Avg
Temp
(Aussen-T/F)
3.4 °C
27-04-2020  05:43:17
30.1 °C
27-04-2020  15:03:17
13.46 °C
Feuchte
(Aussen-T/F)
20 %
27-04-2020  11:23:17
45 %
27-04-2020  06:23:17
32.46 %
Temp
(G-T/H)
12.6 °C
27-04-2020  09:43:17
14.3 °C
29-04-2020  19:53:17
13.55 °C
Feuchte
(G-T/H)
55 %
27-04-2020  00:03:18
65 %
28-04-2020  18:23:17
61.33 %

Die Daten stammen von einer Davis Vantage Pro 2 Wetter-Station und werden unter Linux mit der Software wview2wettercgi und aufbereitet. Alle Angaben erfolgen ohne Gewähr für ihre Vollständigkeit oder Richtigkeit.
Kontakt: Rainer Krienke krienke@uni-koblenz.de . Meine Webseiten an der Uni Koblenz oder privat.
Version: $Revision: 0.78 $